Sunny Point Military Ocean T, North Carolina
Current Conditions -  °F | °C
As of 1:15 AM on Monday 26 Jan 2015 (Local Time) from KSUT Reporting Station
Clear Clear  
Wind Chill: 48°   Ceiling: Unl
Heat Index: 48°   Visibility: 10mi
Dew Point: 46°   Wind: 3mph
Humidity: 90%   Direction: 230°SW
Pressure: 29.82"   Gusts: NA
Location:  33.9216°N, 78.1244°W
Report Text: KSUT 260615Z AUTO 23003KT 10SM CLR 09/08 A2982 RMK AO2 T00900075
Loading
Personal Weather Stations






























Interactive Weather Map New forecast layout! Learn more

10-Day Weather Forecast

Advertisements
Track Severe Weather on mobile